Terminal Aerodrome Forecast
Issued by NWS Jackson, MS

Home | Current Version | Previous Version | Text Only | Print | Product List | Glossary On
Versions: 1 2 3 4 5 6 7 8 9 10 11 12 13 14 15 16 17 18 19 20 21 22 23 24 25 26 27 28 29 30 31 32 33 34 35
000
FTUS44 KJAN 032329
TAFJAN
TAF
KJAN 032329Z 0400/0424 13003KT P6SM VCSH SCT035 BKN100
     FM040200 17004KT P6SM BKN100
     FM041000 18003KT P6SM BKN012
     FM041400 00000KT P6SM SCT020
     FM041700 22005KT P6SM VCTS OVC050CB
     FM042200 19006KT P6SM OVC250=

USA.gov is the U.S. government's official web portal to all federal, state and local government web resources and services.